Roza A — TCRB7 — position and weather

sailwx.info

Track history (hours):
 
Tides and Currents Weather Stations Pressure Air Temp Water Temp Dewpoint Dewpoint Depression Visibility Wind Speed Wind Dir Waves Ship Positions

Roza A

Last reported at 2017-Mar-25 09:13 UTC. Time now 2017-Mar-25 15:46 UTC.
Position N 37°54' E 024°36'.

; draft 6.7 m.

Type: Ship (hazmat cat A). MMSI: 271001057.

Date/timePositionNaut miles runAvg speedWind from/ knotsBaromVisibWave heightAir tempDewpointWater temp
2017-Mar-25 09:13N 37°54' E 024°36'1010.5
2017-Mar-25 08:14N 37°43' E 024°34'2010.5
2017-Mar-25 06:23N 37°28' E 024°19'1010.8
2017-Mar-25 05:26N 37°19' E 024°12'1210.8
2017-Mar-25 04:20N 37°10' E 024°03'911.3
2017-Mar-25 03:33N 37°03' E 023°56'1211.0
2017-Mar-25 02:30N 36°53' E 023°48'26111.2
2017-Mar-24 03:11N 36°21' E 018°26'711.0
2017-Mar-24 02:32N 36°21' E 018°17'8510.7
2017-Mar-23 18:33N 36°23' E 016°31'1111.0
2017-Mar-23 17:32N 36°23' E 016°17'1515.1
2017-Mar-23 16:33N 36°22' E 015°59'4515.1
2017-Mar-23 13:33N 36°24' E 015°03'1414.2
2017-Mar-23 12:33N 36°25' E 014°45'1414.0
2017-Mar-23 11:33N 36°29' E 014°28'1413.5
2017-Mar-23 10:33N 36°35' E 014°14'1313.0
2017-Mar-23 09:33N 36°41' E 013°59'1413.6
2017-Mar-23 08:33N 36°48' E 013°44'1514.0
2017-Mar-23 07:29N 36°56' E 013°29'21611.8
2017-Mar-22 13:08N 38°52' E 009°37'610.8
2017-Mar-22 12:33N 38°55' E 009°30'1111.2
2017-Mar-22 11:33N 39°01' E 009°18'1111.2
2017-Mar-22 10:33N 39°07' E 009°07'5 5.3
2017-Mar-22 09:31N 39°13' E 009°05'0 0.0
2017-Mar-22 08:31N 39°13' E 009°05'0 0.0
2017-Mar-22 07:22N 39°13' E 009°05'0 0.0
2017-Mar-22 06:31N 39°13' E 009°05'0 0.0
2017-Mar-22 05:31N 39°13' E 009°04'0 0.0
2017-Mar-22 04:31N 39°13' E 009°05'0 0.0
2017-Mar-22 03:31N 39°13' E 009°05'0 0.0
2017-Mar-22 02:31N 39°13' E 009°05'0 0.0
2017-Mar-22 01:31N 39°13' E 009°05'0 0.0
2017-Mar-22 00:31N 39°13' E 009°05'0 0.0
2017-Mar-21 23:31N 39°13' E 009°05'0 0.0
2017-Mar-21 22:31N 39°13' E 009°05'0 0.0
2017-Mar-21 21:31N 39°13' E 009°05'0 0.0
2017-Mar-21 20:31N 39°13' E 009°05'0 0.0
2017-Mar-21 19:31N 39°13' E 009°05'0 0.0
2017-Mar-21 18:31N 39°13' E 009°05'0 0.0
2017-Mar-21 17:31N 39°13' E 009°05'0 0.0
2017-Mar-21 16:31N 39°13' E 009°05'0 0.0
2017-Mar-21 15:31N 39°13' E 009°05'0 0.0
2017-Mar-21 14:31N 39°13' E 009°05'0 0.0
2017-Mar-21 13:31N 39°13' E 009°05'0 0.1
2017-Mar-21 12:33N 39°13' E 009°04'7 6.4
2017-Mar-21 11:32N 39°06' E 009°07'0 0.5
2017-Mar-21 10:33N 39°06' E 009°08'8 7.7
2017-Mar-21 09:33N 38°59' E 009°05'1515.5
2017-Mar-21 08:33N 38°48' E 008°51'16915.3
2017-Mar-20 21:30N 38°02' E 005°23'1515.9
2017-Mar-20 20:31N 37°58' E 005°04'1715.8
2017-Mar-20 19:28N 37°54' E 004°44'2015.6
2017-Mar-20 18:10N 37°49' E 004°19'1015.3
2017-Mar-20 17:31N 37°46' E 004°06'1615.4
2017-Mar-20 16:30N 37°42' E 003°47'1415.3
2017-Mar-20 15:33N 37°37' E 003°30'1514.8
2017-Mar-20 14:33N 37°33' E 003°12'1614.6
2017-Mar-20 13:29N 37°30' E 002°53'1514.9
2017-Mar-20 12:30N 37°26' E 002°35'1415.4
2017-Mar-20 11:33N 37°22' E 002°17'1615.6
2017-Mar-20 10:33N 37°18' E 001°59'1715.6
2017-Mar-20 09:29N 37°14' E 001°38'3415.5
2017-Mar-20 07:17N 37°05' E 000°57'1115.0
2017-Mar-20 06:33N 37°02' E 000°44'1515.1
2017-Mar-20 05:33N 36°57' E 000°26'1515.4
2017-Mar-20 04:33N 36°53' E 000°07'1615.5
2017-Mar-20 03:32N 36°49' W 000°12'1515.7
2017-Mar-20 02:33N 36°45' W 000°30'1615.8
2017-Mar-20 01:33N 36°41' W 000°50'1515.4
2017-Mar-20 00:33N 36°36' W 001°08'9315.4
2017-Mar-19 18:32N 36°14' W 002°60'1515.6
2017-Mar-19 17:33N 36°13' W 003°19'1615.3
2017-Mar-19 16:31N 36°10' W 003°38'3216.0
2017-Mar-19 14:31N 36°06' W 004°18'1816.2
2017-Mar-19 13:26N 36°04' W 004°39'1416.0
2017-Mar-19 12:33N 36°02' W 004°56'1615.8
2017-Mar-19 11:33N 35°59' W 005°15'1212.3
2017-Mar-19 10:33N 35°54' W 005°30'1 0.6
2017-Mar-19 09:33N 35°54' W 005°30'0 0.0
2017-Mar-19 08:33N 35°54' W 005°30'0 0.0
2017-Mar-19 07:33N 35°54' W 005°30'0 0.0
2017-Mar-19 06:33N 35°54' W 005°30'0 0.0
2017-Mar-19 05:33N 35°54' W 005°30'0 0.0
2017-Mar-19 04:30N 35°54' W 005°30'0 0.0
2017-Mar-19 03:27N 35°54' W 005°30'0 0.0
2017-Mar-19 02:33N 35°54' W 005°30'0 0.0
2017-Mar-19 01:33N 35°54' W 005°30'0 0.0
2017-Mar-19 00:33N 35°54' W 005°30'0 0.0
2017-Mar-18 23:33N 35°54' W 005°30'0 0.0
2017-Mar-18 22:30N 35°54' W 005°30'0 0.0
2017-Mar-18 21:24N 35°54' W 005°30'2 2.7
2017-Mar-18 20:33N 35°55' W 005°32'3 2.8
2017-Mar-18 19:31N 35°53' W 005°34'0 0.0
2017-Mar-18 18:31N 35°53' W 005°34'0 0.0
2017-Mar-18 17:31N 35°53' W 005°34'0 0.0
2017-Mar-18 16:25N 35°53' W 005°34'0 0.0
2017-Mar-18 15:31N 35°53' W 005°34'1 1.5
2017-Mar-18 14:33N 35°54' W 005°33'5 5.4
2017-Mar-18 13:34N 35°54' W 005°40'8 8.4
2017-Mar-18 12:34N 35°53' W 005°50'  
2017-Mar-15 09:15N 35°56' W 005°51'  
Track history (hours):
 
Tides and Currents Weather Stations Pressure Air Temp Water Temp Dewpoint Dewpoint Depression Visibility Wind Speed Wind Dir Waves Ship Positions

Roza A

Last reported at 2017-Mar-25 09:13 UTC. Time now 2017-Mar-25 15:46 UTC.
Position N 37°54' E 024°36'.

; draft 6.7 m.

Type: Ship (hazmat cat A). MMSI: 271001057.

Date/timePositionNaut miles runAvg speedWind from/ knotsBaromVisibWave heightAir tempDewpointWater temp
2017-Mar-25 09:13N 37°54' E 024°36'1010.5
2017-Mar-25 08:14N 37°43' E 024°34'2010.5
2017-Mar-25 06:23N 37°28' E 024°19'1010.8
2017-Mar-25 05:26N 37°19' E 024°12'1210.8
2017-Mar-25 04:20N 37°10' E 024°03'911.3
2017-Mar-25 03:33N 37°03' E 023°56'1211.0
2017-Mar-25 02:30N 36°53' E 023°48'26111.2
2017-Mar-24 03:11N 36°21' E 018°26'711.0
2017-Mar-24 02:32N 36°21' E 018°17'8510.7
2017-Mar-23 18:33N 36°23' E 016°31'1111.0
2017-Mar-23 17:32N 36°23' E 016°17'1515.1
2017-Mar-23 16:33N 36°22' E 015°59'4515.1
2017-Mar-23 13:33N 36°24' E 015°03'1414.2
2017-Mar-23 12:33N 36°25' E 014°45'1414.0
2017-Mar-23 11:33N 36°29' E 014°28'1413.5
2017-Mar-23 10:33N 36°35' E 014°14'1313.0
2017-Mar-23 09:33N 36°41' E 013°59'1413.6
2017-Mar-23 08:33N 36°48' E 013°44'1514.0
2017-Mar-23 07:29N 36°56' E 013°29'21611.8
2017-Mar-22 13:08N 38°52' E 009°37'610.8
2017-Mar-22 12:33N 38°55' E 009°30'1111.2
2017-Mar-22 11:33N 39°01' E 009°18'1111.2
2017-Mar-22 10:33N 39°07' E 009°07'5 5.3
2017-Mar-22 09:31N 39°13' E 009°05'0 0.0
2017-Mar-22 08:31N 39°13' E 009°05'0 0.0
2017-Mar-22 07:22N 39°13' E 009°05'0 0.0
2017-Mar-22 06:31N 39°13' E 009°05'0 0.0
2017-Mar-22 05:31N 39°13' E 009°04'0 0.0
2017-Mar-22 04:31N 39°13' E 009°05'0 0.0
2017-Mar-22 03:31N 39°13' E 009°05'0 0.0
2017-Mar-22 02:31N 39°13' E 009°05'0 0.0
2017-Mar-22 01:31N 39°13' E 009°05'0 0.0
2017-Mar-22 00:31N 39°13' E 009°05'0 0.0
2017-Mar-21 23:31N 39°13' E 009°05'0 0.0
2017-Mar-21 22:31N 39°13' E 009°05'0 0.0
2017-Mar-21 21:31N 39°13' E 009°05'0 0.0
2017-Mar-21 20:31N 39°13' E 009°05'0 0.0
2017-Mar-21 19:31N 39°13' E 009°05'0 0.0
2017-Mar-21 18:31N 39°13' E 009°05'0 0.0
2017-Mar-21 17:31N 39°13' E 009°05'0 0.0
2017-Mar-21 16:31N 39°13' E 009°05'0 0.0
2017-Mar-21 15:31N 39°13' E 009°05'0 0.0
2017-Mar-21 14:31N 39°13' E 009°05'0 0.0
2017-Mar-21 13:31N 39°13' E 009°05'0 0.1
2017-Mar-21 12:33N 39°13' E 009°04'7 6.4
2017-Mar-21 11:32N 39°06' E 009°07'0 0.5
2017-Mar-21 10:33N 39°06' E 009°08'8 7.7
2017-Mar-21 09:33N 38°59' E 009°05'1515.5
2017-Mar-21 08:33N 38°48' E 008°51'16915.3
2017-Mar-20 21:30N 38°02' E 005°23'1515.9
2017-Mar-20 20:31N 37°58' E 005°04'1715.8
2017-Mar-20 19:28N 37°54' E 004°44'2015.6
2017-Mar-20 18:10N 37°49' E 004°19'1015.3
2017-Mar-20 17:31N 37°46' E 004°06'1615.4
2017-Mar-20 16:30N 37°42' E 003°47'1415.3
2017-Mar-20 15:33N 37°37' E 003°30'1514.8
2017-Mar-20 14:33N 37°33' E 003°12'1614.6
2017-Mar-20 13:29N 37°30' E 002°53'1514.9
2017-Mar-20 12:30N 37°26' E 002°35'1415.4
2017-Mar-20 11:33N 37°22' E 002°17'1615.6
2017-Mar-20 10:33N 37°18' E 001°59'1715.6
2017-Mar-20 09:29N 37°14' E 001°38'3415.5
2017-Mar-20 07:17N 37°05' E 000°57'1115.0
2017-Mar-20 06:33N 37°02' E 000°44'1515.1
2017-Mar-20 05:33N 36°57' E 000°26'1515.4
2017-Mar-20 04:33N 36°53' E 000°07'1615.5
2017-Mar-20 03:32N 36°49' W 000°12'1515.7
2017-Mar-20 02:33N 36°45' W 000°30'1615.8
2017-Mar-20 01:33N 36°41' W 000°50'1515.4
2017-Mar-20 00:33N 36°36' W 001°08'9315.4
2017-Mar-19 18:32N 36°14' W 002°60'1515.6
2017-Mar-19 17:33N 36°13' W 003°19'1615.3
2017-Mar-19 16:31N 36°10' W 003°38'3216.0
2017-Mar-19 14:31N 36°06' W 004°18'1816.2
2017-Mar-19 13:26N 36°04' W 004°39'1416.0
2017-Mar-19 12:33N 36°02' W 004°56'1615.8
2017-Mar-19 11:33N 35°59' W 005°15'1212.3
2017-Mar-19 10:33N 35°54' W 005°30'1 0.6
2017-Mar-19 09:33N 35°54' W 005°30'0 0.0
2017-Mar-19 08:33N 35°54' W 005°30'0 0.0
2017-Mar-19 07:33N 35°54' W 005°30'0 0.0
2017-Mar-19 06:33N 35°54' W 005°30'0 0.0
2017-Mar-19 05:33N 35°54' W 005°30'0 0.0
2017-Mar-19 04:30N 35°54' W 005°30'0 0.0
2017-Mar-19 03:27N 35°54' W 005°30'0 0.0
2017-Mar-19 02:33N 35°54' W 005°30'0 0.0
2017-Mar-19 01:33N 35°54' W 005°30'0 0.0
2017-Mar-19 00:33N 35°54' W 005°30'0 0.0
2017-Mar-18 23:33N 35°54' W 005°30'0 0.0
2017-Mar-18 22:30N 35°54' W 005°30'0 0.0
2017-Mar-18 21:24N 35°54' W 005°30'2 2.7
2017-Mar-18 20:33N 35°55' W 005°32'3 2.8
2017-Mar-18 19:31N 35°53' W 005°34'0 0.0
2017-Mar-18 18:31N 35°53' W 005°34'0 0.0
2017-Mar-18 17:31N 35°53' W 005°34'0 0.0
2017-Mar-18 16:25N 35°53' W 005°34'0 0.0
2017-Mar-18 15:31N 35°53' W 005°34'1 1.5
2017-Mar-18 14:33N 35°54' W 005°33'5 5.4
2017-Mar-18 13:34N 35°54' W 005°40'8 8.4
2017-Mar-18 12:34N 35°53' W 005°50'  
2017-Mar-15 09:15N 35°56' W 005°51'  

Dump ship's entire track history